Aérodrome :
LOGIN :

S'inscrire | Disclaimer

   EN    FR    IT 

 










Légende :    VFR   VFR Marginal   IFR   IFR Intensif   IFR Très Intensif
Visi : 
Plafond : 
>= 8 km
>= 3000ft
5 à 8 km
1000 à 3000 ft
1500m à 5 km
500 à 1000 ft
800 à 1500m
200 à 500 ft
< 800m
< 200 ft
Symboles :   Orages  Brouillard  Fortes neiges  Fortes précipitations  Vent > 20 kt
SIGMETs :   Divers  Orages  Givrage  Turbulence  Onde Orograph.  Cendres Volcan.







- Altitude de l'aérodrome : 352 ft
- Code IATA : ARW


LRAR - Arad International

DERNIER METAR :
  • 201900Z AUTO 28005KT 0600 R27/0750N FG VV001 00/00 Q1017

METARs EXPIRÉS :
  • 201830Z AUTO 28004KT 0900 R27/0900V1500D FG VV002 00/00 Q1016
  • 201800Z AUTO 27004KT 2400 R27/2000 SCT001/// BKN003/// 00/00 Q1016 REFZRA
  • 201730Z AUTO 26003KT 1500 R27/1600N FG VV002 00/00 Q1016
  • 201700Z VRB02KT 3500 -SN BR SCT002 OVC004 00/00 Q1016 R09/29//95
  • 201630Z 21003KT 3500 -SN BR SCT002 OVC004 00/00 Q1015 R09/29//95

TAF TAF LRAR
Valide du 20 à 15h jusqu'au 21 à 00h UTC


201400Z 2015/2024 VRB04KT 1500 -SN BR BKN010 OVC025
BECMG 2019/2021 0800 FZFG OVC005
TEMPO 2021/2024 0600 FZFG BKN002
Pas de NOTAMs connus pour ce terrain.



MET'MAP, la Météo Aéronautique d'un coup d'oeil ! - Copyright ORBIFLY Décembre 2007 - Disclaimer

ORBIFLY MET'MAP TEAM :

Programmation & Développement : Alexandra Zaïnal
Conception & Développement : Baudouin d'Aumeries
Co-Programmation & Développement : Marc-Olivier Méhu
Soutien technique & logistique : Manuel Goepfert

Contact : metmap@orbifly.com




SOURCES & CREDITS :

   NOAA